Time,TemperatureF,DewpointF,PressureIn,WindDirection,WindDirectionDegrees,WindSpeedMPH,WindSpeedGustMPH,Humidity,HourlyPrecipIn,Conditions,Clouds,dailyrainin,SoftwareType,DateUTC
2013-06-06 00:22:00,66.0,6.0,-100.00,WSW,240,17.0,22.0,9,0.00,,,-99.99,,2013-06-06 07:22:00,
2013-06-06 00:32:00,66.0,6.0,-100.00,WSW,240,17.0,22.0,9,0.00,,,-99.99,,2013-06-06 07:32:00,
2013-06-06 00:42:00,66.0,6.0,-100.00,WSW,240,17.0,22.0,9,0.00,,,-99.99,,2013-06-06 07:42:00,
2013-06-06 00:52:00,68.0,15.0,-100.00,WSW,240,17.0,18.0,13,0.00,,,-99.99,,2013-06-06 07:52:00,
2013-06-06 01:22:00,68.0,15.0,-100.00,WSW,240,17.0,18.0,13,0.00,,,-99.99,,2013-06-06 08:22:00,
2013-06-06 01:32:00,68.0,15.0,-100.00,WSW,240,17.0,18.0,13,0.00,,,-99.99,,2013-06-06 08:32:00,
2013-06-06 01:42:00,68.0,15.0,-100.00,WSW,240,17.0,18.0,13,0.00,,,-99.99,,2013-06-06 08:42:00,
2013-06-06 01:52:00,68.0,12.0,-100.00,WSW,240,19.0,20.0,11,0.00,,,-99.99,,2013-06-06 08:52:00,
2013-06-06 02:22:00,68.0,12.0,-100.00,WSW,240,19.0,20.0,11,0.00,,,-99.99,,2013-06-06 09:22:00,
2013-06-06 02:33:00,68.0,12.0,-100.00,WSW,240,19.0,20.0,11,0.00,,,-99.99,,2013-06-06 09:33:00,
2013-06-06 02:43:00,68.0,12.0,-100.00,WSW,240,19.0,20.0,11,0.00,,,-99.99,,2013-06-06 09:43:00,
2013-06-06 02:52:00,68.0,14.0,-100.00,WSW,240,18.0,19.0,12,0.00,,,-99.99,,2013-06-06 09:52:00,
2013-06-06 03:22:00,68.0,14.0,-100.00,WSW,240,18.0,19.0,12,0.00,,,-99.99,,2013-06-06 10:22:00,
2013-06-06 03:33:00,68.0,14.0,-100.00,WSW,240,18.0,19.0,12,0.00,,,-99.99,,2013-06-06 10:33:00,
2013-06-06 03:42:00,68.0,14.0,-100.00,WSW,240,18.0,19.0,12,0.00,,,-99.99,,2013-06-06 10:42:00,
2013-06-06 03:52:00,69.0,12.0,-100.00,WSW,250,18.0,20.0,11,0.00,,,-99.99,,2013-06-06 10:52:00,
2013-06-06 04:22:00,69.0,12.0,-100.00,WSW,250,18.0,20.0,11,0.00,,,-99.99,,2013-06-06 11:22:00,
2013-06-06 04:32:00,69.0,12.0,-100.00,WSW,250,18.0,20.0,11,0.00,,,-99.99,,2013-06-06 11:32:00,
2013-06-06 04:42:00,69.0,12.0,-100.00,WSW,250,18.0,20.0,11,0.00,,,-99.99,,2013-06-06 11:42:00,
2013-06-06 04:52:00,70.0,3.0,-100.00,West,260,11.0,17.0,7,0.00,,,-99.99,,2013-06-06 11:52:00,
2013-06-06 05:22:00,70.0,3.0,-100.00,West,260,11.0,17.0,7,0.00,,,-99.99,,2013-06-06 12:22:00,
2013-06-06 05:32:00,70.0,3.0,-100.00,West,260,11.0,17.0,7,0.00,,,-99.99,,2013-06-06 12:32:00,
2013-06-06 05:42:00,70.0,3.0,-100.00,West,260,11.0,17.0,7,0.00,,,-99.99,,2013-06-06 12:42:00,
2013-06-06 05:52:00,70.0,3.0,-100.00,West,280,6.0,10.0,7,0.00,,,-99.99,,2013-06-06 12:52:00,
2013-06-06 06:22:00,70.0,3.0,-100.00,West,280,6.0,10.0,7,0.00,,,-99.99,,2013-06-06 13:22:00,
2013-06-06 06:32:00,70.0,3.0,-100.00,West,280,6.0,10.0,7,0.00,,,-99.99,,2013-06-06 13:32:00,
2013-06-06 06:42:00,70.0,3.0,-100.00,West,280,6.0,10.0,7,0.00,,,-99.99,,2013-06-06 13:42:00,
2013-06-06 07:22:00,71.0,4.0,-100.00,West,270,7.0,9.0,7,0.00,,,-99.99,,2013-06-06 14:22:00,
2013-06-06 07:32:00,71.0,4.0,-100.00,West,270,7.0,9.0,7,0.00,,,-99.99,,2013-06-06 14:32:00,
2013-06-06 07:52:00,74.0,12.0,-100.00,South,180,1.0,2.0,9,0.00,,,-99.99,,2013-06-06 14:52:00,
2013-06-06 08:23:00,74.0,12.0,-100.00,South,180,1.0,2.0,9,0.00,,,-99.99,,2013-06-06 15:23:00,
2013-06-06 08:33:00,74.0,12.0,-100.00,South,180,1.0,2.0,9,0.00,,,-99.99,,2013-06-06 15:33:00,
2013-06-06 08:52:00,75.0,12.0,-100.00,NE,40,2.0,6.0,9,0.00,,,-99.99,,2013-06-06 15:52:00,
2013-06-06 09:23:00,75.0,12.0,-100.00,NE,40,2.0,6.0,9,0.00,,,-99.99,,2013-06-06 16:23:00,
2013-06-06 09:33:00,75.0,12.0,-100.00,NE,40,2.0,6.0,9,0.00,,,-99.99,,2013-06-06 16:33:00,
2013-06-06 09:43:00,75.0,12.0,-100.00,NE,40,2.0,6.0,9,0.00,,,-99.99,,2013-06-06 16:43:00,
2013-06-06 09:52:00,74.0,16.0,-100.00,East,90,2.0,11.0,11,0.00,,,-99.99,,2013-06-06 16:52:00,
2013-06-06 10:22:00,74.0,16.0,-100.00,East,90,2.0,11.0,11,0.00,,,-99.99,,2013-06-06 17:22:00,
2013-06-06 10:32:00,74.0,16.0,-100.00,East,90,2.0,11.0,11,0.00,,,-99.99,,2013-06-06 17:32:00,
2013-06-06 10:42:00,74.0,16.0,-100.00,East,90,2.0,11.0,11,0.00,,,-99.99,,2013-06-06 17:42:00,
2013-06-06 10:52:00,78.0,17.0,-100.00,NE,40,5.0,9.0,10,0.00,,,-99.99,,2013-06-06 17:52:00,
2013-06-06 11:23:00,78.0,17.0,-100.00,NE,40,5.0,9.0,10,0.00,,,-99.99,,2013-06-06 18:23:00,
2013-06-06 11:33:00,78.0,17.0,-100.00,NE,40,5.0,9.0,10,0.00,,,-99.99,,2013-06-06 18:33:00,
2013-06-06 11:43:00,78.0,17.0,-100.00,NE,40,5.0,9.0,10,0.00,,,-99.99,,2013-06-06 18:43:00,
2013-06-06 11:52:00,78.0,19.0,-100.00,NE,50,7.0,14.0,11,0.00,,,-99.99,,2013-06-06 18:52:00,
2013-06-06 12:23:00,78.0,19.0,-100.00,NE,50,7.0,14.0,11,0.00,,,-99.99,,2013-06-06 19:23:00,
2013-06-06 12:33:00,78.0,19.0,-100.00,NE,50,7.0,14.0,11,0.00,,,-99.99,,2013-06-06 19:33:00,
2013-06-06 12:42:00,78.0,19.0,-100.00,NE,50,7.0,14.0,11,0.00,,,-99.99,,2013-06-06 19:42:00,
2013-06-06 12:52:00,78.0,21.0,-100.00,North,350,4.0,15.0,12,0.00,,,-99.99,,2013-06-06 19:52:00,
2013-06-06 13:22:00,78.0,21.0,-100.00,North,350,4.0,15.0,12,0.00,,,-99.99,,2013-06-06 20:22:00,
2013-06-06 13:33:00,78.0,21.0,-100.00,North,350,4.0,15.0,12,0.00,,,-99.99,,2013-06-06 20:33:00,
2013-06-06 13:42:00,78.0,21.0,-100.00,North,350,4.0,15.0,12,0.00,,,-99.99,,2013-06-06 20:42:00,
2013-06-06 13:52:00,81.0,24.0,-100.00,NE,40,6.0,9.0,12,0.00,,,-99.99,,2013-06-06 20:52:00,
2013-06-06 14:22:00,81.0,24.0,-100.00,NE,40,6.0,9.0,12,0.00,,,-99.99,,2013-06-06 21:22:00,
2013-06-06 14:33:00,81.0,24.0,-100.00,NE,40,6.0,9.0,12,0.00,,,-99.99,,2013-06-06 21:33:00,
2013-06-06 14:43:00,81.0,24.0,-100.00,NE,40,6.0,9.0,12,0.00,,,-99.99,,2013-06-06 21:43:00,
2013-06-06 15:23:00,82.0,26.0,-100.00,NW,320,1.0,12.0,13,0.00,,,-99.99,,2013-06-06 22:23:00,
2013-06-06 15:33:00,82.0,26.0,-100.00,NW,320,1.0,12.0,13,0.00,,,-99.99,,2013-06-06 22:33:00,
2013-06-06 15:52:00,81.0,33.0,-100.00,East,100,6.0,16.0,18,0.00,,,-99.99,,2013-06-06 22:52:00,
2013-06-06 16:22:00,81.0,33.0,-100.00,East,100,6.0,16.0,18,0.00,,,-99.99,,2013-06-06 23:22:00,
2013-06-06 16:33:00,81.0,33.0,-100.00,East,100,6.0,16.0,18,0.00,,,-99.99,,2013-06-06 23:33:00,
2013-06-06 16:42:00,81.0,33.0,-100.00,East,100,6.0,16.0,18,0.00,,,-99.99,,2013-06-06 23:42:00,
2013-06-06 16:52:00,73.0,34.0,-100.00,SW,220,10.0,15.0,24,0.00,,,-99.99,,2013-06-06 23:52:00,
2013-06-06 17:22:00,73.0,34.0,-100.00,SW,220,10.0,15.0,24,0.00,,,-99.99,,2013-06-07 00:22:00,
2013-06-06 17:32:00,73.0,34.0,-100.00,SW,220,10.0,15.0,24,0.00,,,-99.99,,2013-06-07 00:32:00,
2013-06-06 17:42:00,73.0,34.0,-100.00,SW,220,10.0,15.0,24,0.00,,,-99.99,,2013-06-07 00:42:00,
2013-06-06 17:52:00,71.0,34.0,-100.00,SW,230,8.0,13.0,26,0.00,,,-99.99,,2013-06-07 00:52:00,
2013-06-06 18:22:00,71.0,34.0,-100.00,SW,230,8.0,13.0,26,0.00,,,-99.99,,2013-06-07 01:22:00,
2013-06-06 18:32:00,71.0,34.0,-100.00,SW,230,8.0,13.0,26,0.00,,,-99.99,,2013-06-07 01:32:00,
2013-06-06 18:42:00,71.0,34.0,-100.00,SW,230,8.0,13.0,26,0.00,,,-99.99,,2013-06-07 01:42:00,
2013-06-06 19:22:00,70.0,15.0,-100.00,SW,230,11.0,13.0,12,0.00,,,-99.99,,2013-06-07 02:22:00,
2013-06-06 19:32:00,70.0,15.0,-100.00,SW,230,11.0,13.0,12,0.00,,,-99.99,,2013-06-07 02:32:00,
2013-06-06 20:22:00,70.0,9.0,-100.00,WSW,240,17.0,18.0,9,0.00,,,-99.99,,2013-06-07 03:22:00,
2013-06-06 20:33:00,70.0,9.0,-100.00,WSW,240,17.0,18.0,9,0.00,,,-99.99,,2013-06-07 03:33:00,
2013-06-06 21:22:00,71.0,4.0,-100.00,WSW,240,17.0,19.0,7,0.00,,,-99.99,,2013-06-07 04:22:00,
2013-06-06 21:33:00,71.0,4.0,-100.00,WSW,240,17.0,19.0,7,0.00,,,-99.99,,2013-06-07 04:33:00,
2013-06-06 22:22:00,72.0,1.0,-100.00,WSW,250,18.0,20.0,6,0.00,,,-99.99,,2013-06-07 05:22:00,
2013-06-06 22:32:00,72.0,1.0,-100.00,WSW,250,18.0,20.0,6,0.00,,,-99.99,,2013-06-07 05:32:00,
2013-06-06 23:22:00,72.0,-3.0,-100.00,WSW,250,17.0,19.0,5,0.00,,,-99.99,,2013-06-07 06:22:00,
2013-06-06 23:32:00,72.0,-3.0,-100.00,WSW,250,17.0,19.0,5,0.00,,,-99.99,,2013-06-07 06:32:00,
2013-06-06 23:52:00,72.0,1.0,-100.00,WSW,250,18.0,19.0,6,0.00,,,-99.99,,2013-06-07 06:52:00,